Available Load Listing

Click here to view advanced filters and to manage your preferences
Use the boxes above the column to filter results. Clicking the heading will sort
Load# Call Available Origin City State Destination City State Dlv Dt Equip
LID2635000 844-797-8188 2017-11-07 MULESHOE TX GRAND RAPIDS MI 2017-11-09 V
LID2642251-17 844-797-8188 2017-11-09 PORT ARTHUR TX RAMOS ARIZPE CO 2017-11-11 V
LID2642251-7 844-797-8188 2017-11-09 PORT ARTHUR TX RAMOS ARIZPE CO 2017-11-11 V
LID2642251-13 844-797-8188 2017-11-09 PORT ARTHUR TX RAMOS ARIZPE CO 2017-11-11 V
LID2642251-18 844-797-8188 2017-11-09 PORT ARTHUR TX RAMOS ARIZPE CO 2017-11-11 V
LID2642251-21 844-797-8188 2017-11-09 PORT ARTHUR TX RAMOS ARIZPE CO 2017-11-11 V
LID2642251-1 844-797-8188 2017-11-09 PORT ARTHUR TX RAMOS ARIZPE CO 2017-11-11 V
LID2642251-3 844-797-8188 2017-11-09 PORT ARTHUR TX RAMOS ARIZPE CO 2017-11-11 V
LID2642251-6 844-797-8188 2017-11-09 PORT ARTHUR TX RAMOS ARIZPE CO 2017-11-11 V
LID2642251-10 844-797-8188 2017-11-09 PORT ARTHUR TX RAMOS ARIZPE CO 2017-11-11 V
LID2642251-19 844-797-8188 2017-11-09 PORT ARTHUR TX RAMOS ARIZPE CO 2017-11-11 V
LID2642251-22 844-797-8188 2017-11-09 PORT ARTHUR TX RAMOS ARIZPE CO 2017-11-11 V
LID2642251-12 844-797-8188 2017-11-09 PORT ARTHUR TX RAMOS ARIZPE CO 2017-11-11 V
LID2642251-15 844-797-8188 2017-11-09 PORT ARTHUR TX RAMOS ARIZPE CO 2017-11-11 V
LID2642251-23 844-797-8188 2017-11-09 PORT ARTHUR TX RAMOS ARIZPE CO 2017-11-11 V
LID2642251-5 844-797-8188 2017-11-09 PORT ARTHUR TX RAMOS ARIZPE CO 2017-11-11 V
LID2642251-8 844-797-8188 2017-11-09 PORT ARTHUR TX RAMOS ARIZPE CO 2017-11-11 V
LID2642251-16 844-797-8188 2017-11-09 PORT ARTHUR TX RAMOS ARIZPE CO 2017-11-11 V
LID2642251-14 844-797-8188 2017-11-09 PORT ARTHUR TX RAMOS ARIZPE CO 2017-11-11 V
LID2642251-20 844-797-8188 2017-11-09 PORT ARTHUR TX RAMOS ARIZPE CO 2017-11-11 V
LID2642251-9 844-797-8188 2017-11-09 PORT ARTHUR TX RAMOS ARIZPE CO 2017-11-11 V
LID2642251-2 844-797-8188 2017-11-09 PORT ARTHUR TX RAMOS ARIZPE CO 2017-11-11 V
LID2642251-4 844-797-8188 2017-11-09 PORT ARTHUR TX RAMOS ARIZPE CO 2017-11-11 V
LID2642251-11 844-797-8188 2017-11-09 PORT ARTHUR TX RAMOS ARIZPE CO 2017-11-11 V
LID2622850 360-682-5640 2017-11-10 MADILL OK CONROE TX 2017-11-13 FD
LID2648532-21 844-797-8188 2017-11-13 SANTA ROSA DE JAUREGUI QR COPPELL TX 2017-11-18 CN
LID2622841 360-682-5640 2017-11-13 MADILL OK CONROE TX 2017-11-14 FD
LID2648532-23 844-797-8188 2017-11-13 SANTA ROSA DE JAUREGUI QR COPPELL TX 2017-11-18 CN
LID2648532-18 844-797-8188 2017-11-13 SANTA ROSA DE JAUREGUI QR COPPELL TX 2017-11-18 CN
LID2648532-20 844-797-8188 2017-11-13 SANTA ROSA DE JAUREGUI QR COPPELL TX 2017-11-18 CN
LID2648532-22 844-797-8188 2017-11-13 SANTA ROSA DE JAUREGUI QR COPPELL TX 2017-11-18 CN
LID2635893 360-682-5640 2017-11-13 MADILL OK CONROE TX 2017-11-14 FD
LID2648532-19 844-797-8188 2017-11-13 SANTA ROSA DE JAUREGUI QR COPPELL TX 2017-11-18 CN
LID2641186 336-310-0327 2017-11-14 Foley AL FORT WORTH TX 2017-11-16 V
LID2648981 360-682-5640 2017-11-15 MADILL OK LEVELLAND TX 2017-11-16 FD
LID2648265 360-682-5640 2017-11-15 MADILL OK LLANO TX 2017-11-16 FD
LID2649621 360-682-5640 2017-11-15 MADILL OK CEDAR PARK TX 2017-11-15 F
LID2647826 336-310-4465 2017-11-15 LAREDO TX TANEYTOWN MD 2017-11-20 F
LID2655455 360-682-5640 2017-11-16 TULSA OK LUBBOCK TX 2017-11-17 FD
LID2648494 855-494-2049 2017-11-16 PITTSBORO IN HOUSTON TX 2017-11-18 F
LID2655636 360-682-5640 2017-11-16 NORMAN OK BALCH SPRINGS TX 2017-11-17 FD
LID2653824-2 855-494-2048 2017-11-16 HARLINGEN TX AMARILLO TX 2017-11-17 F
LID2637710 847-463-5128 2017-11-16 GRANTSVILLE UT GRAND SALINE TX 2017-11-20 VR
LID2646472 843-410-1279 2017-11-16 BILLINGS MT SEAGRAVES TX 2017-11-20 VZ
LID2637709 847-463-5128 2017-11-16 GRANTSVILLE UT GRAND SALINE TX 2017-11-20 VR
LID2641341 479-203-5234 2017-11-16 Boron CA ROSENBERG TX 2017-11-20 V
LID2639798 844-797-8190 2017-11-17 HIGHLAND PARK MI AMARILLO TX 2017-11-20 V
LID2655677 937-827-0198 2017-11-17 SAN ANTONIO TX GILBERT AZ 2017-11-21 FD
LID2648427 855-494-2049 2017-11-17 PITTSBORO IN HOUSTON TX 2017-11-20 F
LID2637926 866-637-8600 2017-11-17 HOUSTON TX MESQUITE TX 2017-11-20 V
LID2658189 209-417-1248 2017-11-17 NYSSA OR GARLAND TX 2017-11-20 VV
LID2658269 937-827-0199 2017-11-17 SALT LAKE CITY UT LUBBOCK TX 2017-11-20 V
LID2654931 855-494-2049 2017-11-17 HOUSTON TX HOLLY SPRINGS MS 2017-11-18 FD
LID2658167 844-619-9572 2017-11-17 Brownsville TX Fort Wayne IN 2017-11-20 V
LID2653621 910-859-8114 2017-11-17 SHINER TX PERRYSBURG OH 2017-11-20 RT
LID2657196 360-682-5640 2017-11-17 NORMAN OK SAN ANTONIO TX 2017-11-18 FD
LID2657128 360-682-5640 2017-11-17 NORMAN OK AUSTIN TX 2017-11-18 F
LID2653180 844-797-8188 2017-11-17 TURLOCK CA GRAND PRAIRIE TX 2017-11-20 VR
LID2646546 843-410-1279 2017-11-17 BILLINGS MT SEAGRAVES TX 2017-11-20 V
LID2653824-4 855-494-2048 2017-11-17 HARLINGEN TX AMARILLO TX 2017-11-20 F
LID2656204 844-721-4002 2017-11-17 MEMPHIS TN LUBBOCK TX 2017-11-20 V
LID2648457 855-494-2049 2017-11-17 PITTSBORO IN HOUSTON TX 2017-11-18 F
LID2653824-3 855-494-2048 2017-11-17 HARLINGEN TX AMARILLO TX 2017-11-20 F
LID2658170 209-417-1248 2017-11-17 NYSSA OR DALLAS TX 2017-11-20 RT
LID2642837 855-494-2048 2017-11-17 THOMASVILLE AL EL PASO TX 2017-11-20 F
LID2654822 937-827-0198 2017-11-18 BEAUMONT TX ARDMORE OK 2017-11-19 V
LID2658613 336-310-0327 2017-11-19 COVINGTON GA PEARLAND TX 2017-11-21 V
LID2656662 855-494-2049 2017-11-20 LA PORTE TX LAREDO TX 2017-11-22 V
LID2653639 800-500-4915 2017-11-20 HUTCHINS TX NEW CANEY TX 2017-11-21 RT
LID2654347 937-827-0198 2017-11-20 SIMSBORO LA San Antonio TX 2017-11-21 V
LID2646509 855-494-2048 2017-11-20 Ennis TX OLATHE KS 2017-11-21 F
LID2657717 937-827-0198 2017-11-20 Jackson MS ENNIS TX 2017-11-20 SD
LID2655654 336-474-9240 2017-11-20 BURLEY ID HOUSTON TX 2017-11-22 V
LID2658004 855-494-2048 2017-11-20 HALTOM CITY TX TULSA OK 2017-11-21 FH
LID2658187 937-827-0198 2017-11-20 NORTH EAST PA GRAND PRAIRIE TX 2017-11-22 V
LID2642714 866-637-8600 2017-11-20 HOUSTON TX MESQUITE TX 2017-11-21 V
LID2656141 844-797-8188 2017-11-20 RICHLAND HILLS TX TEMPLE TX 2017-11-21 V
LID2657324 336-310-0327 2017-11-20 ROCHESTER PA GARLAND TX 2017-11-22 V
LID2657852 937-827-0198 2017-11-20 SAN ANTONIO TX BULLHEAD CITY AZ 2017-11-22 FD
LID2657228 855-494-2049 2017-11-20 WAXAHACHIE TX KATY TX 2017-11-17 V
LID2649191 855-494-2049 2017-11-20 PITTSBORO IN HOUSTON TX 2017-11-22 F
LID2651898 727-781-7896 2017-11-20 HOUSTON TX OKLAHOMA CITY OK 2017-11-21 VR
LID2649195 855-494-2049 2017-11-20 PITTSBORO IN HOUSTON TX 2017-11-22 F
LID2652073 855-494-2048 2017-11-20 Ennis TX EL PASO TX 2017-11-21 F
LID2655465 937-827-0199 2017-11-20 KEOKUK IA LAREDO TX 2017-11-22 F
LID2657986 937-827-0198 2017-11-20 SAN ANTONIO TX FRANKLIN PARK IL 2017-11-27 FD
LID2654190 479-203-5234 2017-11-20 Boron CA MIDLAND TX 2017-11-20 V
LID2657683 855-494-2048 2017-11-20 FT WORTH TX AUSTIN TX 2017-11-21 V
LID2649176 855-494-2049 2017-11-20 PITTSBORO IN HOUSTON TX 2017-11-22 F
LID2657137 844-797-8190 2017-11-20 HOUSTON TX DANVERS MA 2017-11-23 VM
LID2657390 800-347-0405 2017-11-20 FOWLER CA AMARILLO TX 2017-11-27 VR
LID2652074 855-494-2048 2017-11-20 Ennis TX EL PASO TX 2017-11-21 F
LID2634598 336-310-4465 2017-11-20 KANSAS CITY MO TYLER TX 2017-11-21 V
LID2657723 937-827-0198 2017-11-20 SAN ANTONIO TX TUCSON AZ 2017-11-22 FD
LID2657229 855-494-2048 2017-11-20 Ennis TX OLATHE KS 2017-11-21 F
LID2658647 937-827-0198 2017-11-20 SAN ANTONIO TX BELLINGHAM WA 2017-11-29 FD
LID2658326 937-827-0198 2017-11-20 SAN ANTONIO TX HOUSTON TX 2017-11-21 SD
LID2657564 937-827-0198 2017-11-20 SAN ANTONIO TX LONGVIEW TX 2017-11-21 FD
LID2655460 937-827-0199 2017-11-20 KEOKUK IA LAREDO TX 2017-11-22 F
LID2657230 855-494-2049 2017-11-20 WAXAHACHIE TX KATY TX 2017-11-17 V
LID2657570 937-827-0198 2017-11-20 SAN ANTONIO TX LONGVIEW TX 2017-11-21 FD
LID2658560 937-827-0198 2017-11-20 SAN ANTONIO TX AKRON OH 2017-11-28 FD
LID2658145 937-827-0198 2017-11-20 SAN ANTONIO TX LAS VEGAS NV 2017-11-27 FD
LID2649189 855-494-2049 2017-11-20 PITTSBORO IN HOUSTON TX 2017-11-22 F
LID2655723 855-494-2048 2017-11-20 ALVARADO TX Darby MT 2017-11-22 SD
LID2657959 336-474-9240 2017-11-21 MENA AR HASLET TX 2017-11-21 V
LID2657227 855-494-2049 2017-11-21 WAXAHACHIE TX KATY TX 2017-11-17 V
LID2657244 855-494-2048 2017-11-21 Ennis TX OLATHE KS 2017-11-22 F
LID2653122 855-494-2049 2017-11-21 WASHINGTON MO KATY TX 2017-11-22 V
LID2657357 855-494-2049 2017-11-21 LA MIRADA CA KATY TX 2017-11-17 V
LID2654951-2 855-494-2048 2017-11-21 ENNIS TX HOUSTON TX 2017-11-21 F
LID2657232 855-494-2048 2017-11-21 Ennis TX OLATHE KS 2017-11-22 F
LID2657960 336-474-9240 2017-11-21 MEMPHIS TN HASLET TX 2017-11-21 V
LID2653125 855-494-2049 2017-11-21 WASHINGTON MO KATY TX 2017-11-22 V
LID2654951-1 855-494-2048 2017-11-21 ENNIS TX HOUSTON TX 2017-11-21 F
LID2655252 855-494-2048 2017-11-21 Ennis TX KANSAS CITY MO 2017-11-22 F
LID2657544 855-494-2049 2017-11-21 SAN DIEGO CA KATY TX 2017-11-17 V
LID2657225 855-494-2049 2017-11-21 WAXAHACHIE TX KATY TX 2017-11-17 V
LID2652165 855-494-2049 2017-11-21 ADDISON TX KATY TX 2017-11-22 V
LID2656376 847-463-5128 2017-11-21 PARSONS TN PROSPER TX 2017-11-27 V
LID2656695 888-285-4514 2017-11-21 LAREDO TX DESOTO TX 2017-11-22 V
LID2620601 937-827-0199 2017-11-21 FORT WORTH TX ERIE PA 2017-11-23 CONG
LID2657226 855-494-2049 2017-11-21 WAXAHACHIE TX KATY TX 2017-11-17 V
LID2658589 866-637-8600 2017-11-21 LAREDO TX ALBUQUERQUE NM 2017-11-23 V
LID2657047 937-827-0198 2017-11-21 SIMSBORO LA SAN ANTONIO TX 2017-11-22 V
LID2654951-3 855-494-2048 2017-11-21 ENNIS TX HOUSTON TX 2017-11-21 F
LID2657540 855-494-2049 2017-11-22 DALLAS TX JEFFERSONVILLE GA 2017-11-27 V
LID2651848 855-494-2049 2017-11-22 FORT WORTH TX AMARILLO TX 2017-11-27 F
LID2614104 844-797-8190 2017-11-22 HOUSTON TX DANVERS MA 2017-11-24 VM
LID2657542 855-494-2049 2017-11-22 SPARTANBURG SC KATY TX 2017-11-27 V
LID2620591 937-827-0199 2017-11-22 FORT WORTH TX ERIE PA 2017-11-24 CONG
LID2655699 937-827-0197 2017-11-22 URBANA OH LAREDO TX 2017-11-27 VR
LID2652158 866-637-8600 2017-11-22 LA PORTE TX COMMERCE CA 2017-11-27 V
LID2657419 937-827-0199 2017-11-22 HANOVER PARK IL LAREDO TX 2017-11-24 V
LID2653077 844-797-8188 2017-11-24 MARSHVILLE NC SAN ANTONIO TX 2017-11-27 RT
LID2654949 844-373-5795 2017-11-24 LONDONDERRY NH DALLAS TX 2017-11-28 RT
LID2654188 479-203-5234 2017-11-24 Boron CA DALLAS TX 2017-11-24 V
LID2641339 479-203-5234 2017-11-26 Boron CA ROSENBERG TX 2017-11-26 V
LID2654868 855-494-2048 2017-11-27 Ennis TX KANSAS CITY KS 2017-11-28 F
LID2655710 937-827-0197 2017-11-27 URBANA OH SAN MARCOS TX 2017-11-29 VR
LID2657530 800-347-0405 2017-11-27 OMAHA NE AMARILLO TX 2017-11-28 VR
LID2637940 866-637-8600 2017-11-27 HOUSTON TX MESQUITE TX 2017-11-28 V
LID2651113 937-827-0198 2017-11-27 STEELE AL TROY TX 2017-11-29 V
LID2655669 855-840-7891 2017-11-27 STAFFORD TX JACKSONVILLE FL 2017-11-29 V
LID2657269 855-494-2048 2017-11-28 Ennis TX KANSAS CITY MO 2017-11-29 F
LID2637261 855-211-4702 2017-11-28 PLAINVIEW TX PHOENIX AZ 2017-11-30 V
LID2628979 855-211-4702 2017-11-28 DAWN TX TEMPE AZ 2017-11-30 V
LID2648295 479-203-5234 2017-11-28 Boron CA PLEASANTON TX 2017-11-28 BK
LID2657268 855-494-2048 2017-11-28 Ennis TX KANSAS CITY MO 2017-11-29 F
LID2656433 844-619-9572 2017-11-28 CHICAGO IL Dallas TX 2017-11-30 V
LID2639758 937-827-0199 2017-11-28 FORT WORTH TX ERIE PA 2017-11-30 CONG
LID2657274 855-494-2048 2017-11-28 Ennis TX TULSA OK 2017-11-28 F
LID2614105 844-797-8190 2017-11-29 HOUSTON TX DANVERS MA 2017-12-01 VM
LID2639759 937-827-0199 2017-11-29 FORT WORTH TX ERIE PA 2017-12-01 FD
LID2655722 937-827-0197 2017-11-29 URBANA OH SAN MARCOS TX 2017-12-01 VR
LID2642659 855-494-2048 2017-11-29 THOMASVILLE AL DALLAS TX 2017-11-30 F
LID2648314 800-347-0405 2017-11-30 LOOP TX OSAGE IA 2017-12-01 VR
LID2650000 855-494-2048 2017-11-30 JASPER TX HURST TX 2017-12-01 F
LID2639757 937-827-0199 2017-11-30 FORT WORTH TX ERIE PA 2017-12-04 FD
LID2642867 855-494-2048 2017-11-30 THOMASVILLE AL DALLAS TX 2017-11-30 F
LID2649901 855-494-2048 2017-11-30 CARTHAGE TX SAINT CHARLES IL 2017-11-30 F
LID2642733 866-637-8600 2017-11-30 HOUSTON TX MESQUITE TX 2017-12-01 V
LID2650455 479-203-5850 2017-11-30 KANSAS CITY MO LAREDO TX 2017-12-04 V
LID2655730 937-827-0197 2017-12-01 URBANA OH SAN MARCOS TX 2017-12-03 VR
LID2658605 336-310-0327 2017-12-01 Cantonment FL LAREDO TX 2017-12-04 V
LID2639761 937-827-0199 2017-12-01 FORT WORTH TX ERIE PA 2017-12-04 F
LID2648491 479-203-5234 2017-12-05 Boron CA PLEASANTON TX 2017-12-05 BK
LID2628963 855-211-4702 2017-12-05 DAWN TX TEMPE AZ 2017-12-07 V
LID2637293 855-211-4702 2017-12-05 PLAINVIEW TX PHOENIX AZ 2017-12-07 V
LID2656456 844-619-9572 2017-12-11 CHICAGO IL FARMERS BRANCH TX 2017-12-13 V
LID2637375 855-211-4702 2017-12-12 PLAINVIEW TX PHOENIX AZ 2017-12-14 V
LID2641343 479-203-5234 2017-12-14 Boron CA ROSENBERG TX 2017-12-14 V
LID2501115 479-203-5234 2017-12-18 Wilmington CA ELMENDORF TX 2017-12-18 V
LID2309682 844-797-8188 2017-12-31 DALLAS TX Denton TX 2017-12-31 V
LID2413913 844-797-8188 2017-12-31 Houston TX Denton TX 2018-01-01 V
LID2595783 844-797-8188 2017-12-31 DALLAS TX Denton TX 2018-01-01 V
LID2413848 844-797-8188 2017-12-31 Missouri City TX Denton TX 2018-01-01 V
LID2596674 844-797-8188 2017-12-31 DALLAS TX Denton TX 2018-01-04 DRT
LID2406175 844-797-8188 2017-12-31 SEGUIN TX PERRIS CA 2018-01-02 V